Time;durP1;ratioP1;P1;durP2;ratioP2;P2;SDS_P1;SDS_P2;PMS_P1;PMS_P2;Temp;Humidity;BMP_temperature;BMP_pressure;BME280_temperature;BME280_humidity;BME280_pressure;Samples;Min_cycle;Max_cycle;Signal;HPM_P1;HPM_P2
2024/02/03 00:00:54;;;;;;;13.20;6.00;;;;;;;-128.00;-1.00;-1.00;103251;1252;1004336;-77
2024/02/03 00:03:41;;;;;;;10.80;6.40;;;;;;;-128.00;-1.00;-1.00;103056;1253;1060121;-75
2024/02/03 00:06:07;;;;;;;9.70;4.70;;;;;;;-128.00;-1.00;-1.00;103071;1253;1004580;-79
2024/02/03 00:08:34;;;;;;;9.00;4.90;;;;;;;-128.00;-1.00;-1.00;103088;1251;1005187;-75
2024/02/03 00:11:00;;;;;;;11.10;6.30;;;;;;;-128.00;-1.00;-1.00;103030;1253;1004837;-79
2024/02/03 00:13:27;;;;;;;10.00;7.00;;;;;;;-128.00;-1.00;-1.00;102995;1253;1004513;-75
2024/02/03 00:15:53;;;;;;;16.90;4.90;;;;;;;-128.00;-1.00;-1.00;102990;1257;1004564;-74
2024/02/03 00:18:20;;;;;;;12.40;6.80;;;;;;;-128.00;-1.00;-1.00;103024;1253;1004191;-79
2024/02/03 00:20:46;;;;;;;14.00;8.50;;;;;;;-128.00;-1.00;-1.00;103014;1253;1005555;-74
2024/02/03 00:23:13;;;;;;;11.60;6.80;;;;;;;-128.00;-1.00;-1.00;103142;1253;1005387;-79
2024/02/03 00:25:39;;;;;;;11.50;5.60;;;;;;;-128.00;-1.00;-1.00;103064;1252;1004720;-79
2024/02/03 00:28:05;;;;;;;11.50;6.40;;;;;;;-128.00;-1.00;-1.00;103056;1256;1005015;-75
2024/02/03 00:30:32;;;;;;;11.10;5.90;;;;;;;-128.00;-1.00;-1.00;103034;1253;1003773;-75
2024/02/03 00:32:58;;;;;;;12.20;6.30;;;;;;;-128.00;-1.00;-1.00;103841;1253;1004906;-79
2024/02/03 00:35:25;;;;;;;10.80;5.40;;;;;;;-128.00;-1.00;-1.00;105707;1252;1004629;-75
2024/02/03 00:37:51;;;;;;;10.80;5.30;;;;;;;-128.00;-1.00;-1.00;105708;1251;1004398;-75
2024/02/03 00:40:18;;;;;;;10.10;5.00;;;;;;;-128.00;-1.00;-1.00;105651;1252;1004194;-79
2024/02/03 00:42:44;;;;;;;13.90;5.90;;;;;;;-128.00;-1.00;-1.00;105646;1252;1004618;-79
2024/02/03 00:45:11;;;;;;;11.00;5.20;;;;;;;-128.00;-1.00;-1.00;105682;1252;1004431;-79
2024/02/03 00:47:38;;;;;;;13.20;5.50;;;;;;;-128.00;-1.00;-1.00;104503;1253;1004523;-79
2024/02/03 00:50:05;;;;;;;9.70;5.60;;;;;;;-128.00;-1.00;-1.00;103039;1253;1005507;-75
2024/02/03 00:52:31;;;;;;;12.90;6.00;;;;;;;-128.00;-1.00;-1.00;103057;1253;1004084;-78
2024/02/03 00:54:58;;;;;;;12.20;7.20;;;;;;;-128.00;-1.00;-1.00;103019;1252;1005356;-74
2024/02/03 00:57:24;;;;;;;9.00;5.40;;;;;;;-128.00;-1.00;-1.00;103017;1252;1005221;-79
2024/02/03 00:59:51;;;;;;;10.30;6.50;;;;;;;-128.00;-1.00;-1.00;102974;1253;1005320;-79
2024/02/03 01:02:18;;;;;;;9.50;6.10;;;;;;;-128.00;-1.00;-1.00;103128;1252;1004409;-75
2024/02/03 01:04:45;;;;;;;13.10;6.20;;;;;;;-128.00;-1.00;-1.00;105653;1253;1004768;-75
2024/02/03 01:07:12;;;;;;;7.60;5.70;;;;;;;-128.00;-1.00;-1.00;105083;1252;1004312;-79
2024/02/03 01:09:38;;;;;;;13.90;5.30;;;;;;;-128.00;-1.00;-1.00;103068;1253;1004930;-79
2024/02/03 01:12:05;;;;;;;10.90;6.80;;;;;;;-128.00;-1.00;-1.00;102975;1253;1005257;-80
2024/02/03 01:14:31;;;;;;;13.70;6.30;;;;;;;-128.00;-1.00;-1.00;105475;1253;1003974;-79
2024/02/03 01:16:58;;;;;;;12.40;6.40;;;;;;;-128.00;-1.00;-1.00;104125;1253;1003667;-79
2024/02/03 01:19:24;;;;;;;11.60;5.50;;;;;;;-128.00;-1.00;-1.00;102951;1253;1004282;-75
2024/02/03 01:21:51;;;;;;;13.90;6.40;;;;;;;-128.00;-1.00;-1.00;103064;1253;1004512;-75
2024/02/03 01:24:17;;;;;;;16.20;8.00;;;;;;;-128.00;-1.00;-1.00;105358;1251;1004429;-79
2024/02/03 01:26:43;;;;;;;14.40;5.80;;;;;;;-128.00;-1.00;-1.00;105664;1253;1004753;-75
2024/02/03 01:29:10;;;;;;;10.80;5.60;;;;;;;-128.00;-1.00;-1.00;105687;1252;1004483;-75
2024/02/03 01:31:37;;;;;;;14.90;7.10;;;;;;;-128.00;-1.00;-1.00;105700;1252;1004433;-79
2024/02/03 01:34:04;;;;;;;8.00;4.50;;;;;;;-128.00;-1.00;-1.00;105329;1253;1005020;-79
2024/02/03 01:36:30;;;;;;;12.50;5.90;;;;;;;-128.00;-1.00;-1.00;103006;1253;1004751;-75
2024/02/03 01:38:57;;;;;;;15.00;5.70;;;;;;;-128.00;-1.00;-1.00;104255;1252;1005131;-79
2024/02/03 01:41:23;;;;;;;10.20;5.50;;;;;;;-128.00;-1.00;-1.00;103031;1253;1006391;-79
2024/02/03 01:43:50;;;;;;;9.50;5.30;;;;;;;-128.00;-1.00;-1.00;104838;1253;1004521;-79
2024/02/03 01:46:17;;;;;;;9.40;5.70;;;;;;;-128.00;-1.00;-1.00;104013;1252;1005000;-75
2024/02/03 01:48:43;;;;;;;8.40;5.50;;;;;;;-128.00;-1.00;-1.00;104788;1252;1004304;-80
2024/02/03 01:51:10;;;;;;;9.20;6.10;;;;;;;-128.00;-1.00;-1.00;105743;1252;1003619;-79
2024/02/03 01:53:36;;;;;;;10.80;6.40;;;;;;;-128.00;-1.00;-1.00;104448;1253;1004382;-79
2024/02/03 01:56:03;;;;;;;13.50;7.20;;;;;;;-128.00;-1.00;-1.00;102990;1251;1004320;-79
2024/02/03 01:58:30;;;;;;;11.90;7.40;;;;;;;-128.00;-1.00;-1.00;103018;1253;1005067;-79
2024/02/03 02:00:56;;;;;;;11.60;6.70;;;;;;;-128.00;-1.00;-1.00;103034;1255;1004427;-79
2024/02/03 02:03:22;;;;;;;14.50;8.10;;;;;;;-128.00;-1.00;-1.00;103012;1253;1003857;-79
2024/02/03 02:05:49;;;;;;;12.50;6.50;;;;;;;-128.00;-1.00;-1.00;103015;1253;1003663;-75
2024/02/03 02:08:16;;;;;;;13.60;7.30;;;;;;;-128.00;-1.00;-1.00;103019;1253;1003976;-75
2024/02/03 02:10:42;;;;;;;11.60;6.20;;;;;;;-128.00;-1.00;-1.00;103091;1253;1004296;-79
2024/02/03 02:13:09;;;;;;;10.90;5.70;;;;;;;-128.00;-1.00;-1.00;103059;1253;1004283;-75
2024/02/03 02:15:35;;;;;;;14.30;6.60;;;;;;;-128.00;-1.00;-1.00;102980;1253;1004930;-79
2024/02/03 02:18:02;;;;;;;14.60;7.30;;;;;;;-128.00;-1.00;-1.00;102904;1253;1004285;-79
2024/02/03 02:20:28;;;;;;;12.20;6.80;;;;;;;-128.00;-1.00;-1.00;103021;1253;1004257;-79
2024/02/03 02:22:55;;;;;;;13.60;6.90;;;;;;;-128.00;-1.00;-1.00;103077;1254;1005013;-76
2024/02/03 02:25:21;;;;;;;13.10;6.30;;;;;;;-128.00;-1.00;-1.00;103043;1253;1003479;-79
2024/02/03 02:27:48;;;;;;;15.80;8.30;;;;;;;-128.00;-1.00;-1.00;103087;1252;1003941;-80
2024/02/03 02:30:15;;;;;;;12.40;7.80;;;;;;;-128.00;-1.00;-1.00;103031;1253;1004551;-80
2024/02/03 02:32:44;;;;;;;12.20;6.20;;;;;;;-128.00;-1.00;-1.00;103000;1253;1005345;-75
2024/02/03 02:35:12;;;;;;;13.40;6.30;;;;;;;-128.00;-1.00;-1.00;103058;1253;1047828;-79
2024/02/03 02:37:39;;;;;;;15.80;8.70;;;;;;;-128.00;-1.00;-1.00;102960;1253;1005072;-74
2024/02/03 02:40:06;;;;;;;12.90;7.30;;;;;;;-128.00;-1.00;-1.00;102996;1252;1006208;-79
2024/02/03 02:42:32;;;;;;;14.00;7.20;;;;;;;-128.00;-1.00;-1.00;103036;1253;1003612;-79
2024/02/03 02:44:59;;;;;;;13.90;6.60;;;;;;;-128.00;-1.00;-1.00;103011;1253;1006410;-79
2024/02/03 02:47:26;;;;;;;14.50;5.90;;;;;;;-128.00;-1.00;-1.00;103057;1253;1004568;-79
2024/02/03 02:49:52;;;;;;;13.30;7.00;;;;;;;-128.00;-1.00;-1.00;103033;1253;1004465;-75
2024/02/03 02:52:19;;;;;;;12.20;7.20;;;;;;;-128.00;-1.00;-1.00;103296;1252;1003928;-79
2024/02/03 02:54:45;;;;;;;14.80;6.10;;;;;;;-128.00;-1.00;-1.00;103514;1253;1003390;-75
2024/02/03 02:57:12;;;;;;;12.20;6.60;;;;;;;-128.00;-1.00;-1.00;103051;1253;1004917;-79
2024/02/03 02:59:38;;;;;;;10.10;6.70;;;;;;;-128.00;-1.00;-1.00;102993;1253;1004125;-79
2024/02/03 03:02:05;;;;;;;18.10;6.70;;;;;;;-128.00;-1.00;-1.00;103015;1253;1004922;-79
2024/02/03 03:04:31;;;;;;;10.70;7.20;;;;;;;-128.00;-1.00;-1.00;103012;1252;1004983;-75
2024/02/03 03:06:58;;;;;;;14.40;6.30;;;;;;;-128.00;-1.00;-1.00;103037;1253;1004451;-75
2024/02/03 03:09:25;;;;;;;14.50;8.70;;;;;;;-128.00;-1.00;-1.00;102971;1253;1005273;-79
2024/02/03 03:11:52;;;;;;;16.50;7.10;;;;;;;-128.00;-1.00;-1.00;102994;1253;1004742;-79
2024/02/03 03:14:18;;;;;;;10.50;6.10;;;;;;;-128.00;-1.00;-1.00;105659;1253;1003984;-79
2024/02/03 03:16:45;;;;;;;12.80;6.60;;;;;;;-128.00;-1.00;-1.00;105680;1253;1004026;-75
2024/02/03 03:19:11;;;;;;;10.00;5.80;;;;;;;-128.00;-1.00;-1.00;105636;1253;1004515;-75
2024/02/03 03:21:38;;;;;;;13.80;7.50;;;;;;;-128.00;-1.00;-1.00;105685;1253;1004236;-75
2024/02/03 03:24:05;;;;;;;9.00;5.80;;;;;;;-128.00;-1.00;-1.00;105727;1251;1003938;-80
2024/02/03 03:26:31;;;;;;;8.50;5.70;;;;;;;-128.00;-1.00;-1.00;105659;1252;1003964;-79
2024/02/03 03:28:57;;;;;;;8.50;5.40;;;;;;;-128.00;-1.00;-1.00;105700;1252;1003929;-79
2024/02/03 03:31:25;;;;;;;8.20;5.20;;;;;;;-128.00;-1.00;-1.00;105674;1252;1005012;-75
2024/02/03 03:33:51;;;;;;;17.00;7.30;;;;;;;-128.00;-1.00;-1.00;105669;1253;1004480;-75
2024/02/03 03:36:17;;;;;;;13.10;8.50;;;;;;;-128.00;-1.00;-1.00;104856;1252;1004081;-80
2024/02/03 03:38:44;;;;;;;13.40;7.40;;;;;;;-128.00;-1.00;-1.00;102972;1253;1004586;-75
2024/02/03 03:41:10;;;;;;;12.00;6.30;;;;;;;-128.00;-1.00;-1.00;103022;1253;1004072;-79
2024/02/03 03:43:37;;;;;;;16.50;6.20;;;;;;;-128.00;-1.00;-1.00;103021;1255;1004364;-75
2024/02/03 03:46:05;;;;;;;9.20;5.30;;;;;;;-128.00;-1.00;-1.00;102998;1253;1004357;-75
2024/02/03 03:48:32;;;;;;;14.90;5.60;;;;;;;-128.00;-1.00;-1.00;102997;1253;1004794;-79
2024/02/03 03:50:59;;;;;;;10.90;5.70;;;;;;;-128.00;-1.00;-1.00;103001;1253;1004605;-75
2024/02/03 03:53:25;;;;;;;8.00;4.70;;;;;;;-128.00;-1.00;-1.00;104801;1252;1005000;-75
2024/02/03 03:55:52;;;;;;;9.70;6.10;;;;;;;-128.00;-1.00;-1.00;104264;1258;1004273;-75
2024/02/03 03:58:18;;;;;;;15.30;8.40;;;;;;;-128.00;-1.00;-1.00;102971;1251;1004748;-75
2024/02/03 04:00:45;;;;;;;13.30;11.40;;;;;;;-128.00;-1.00;-1.00;102987;1253;1004008;-79
2024/02/03 04:03:11;;;;;;;75.20;50.60;;;;;;;-128.00;-1.00;-1.00;102998;1253;1004552;-75
2024/02/03 04:05:38;;;;;;;16.20;10.70;;;;;;;-128.00;-1.00;-1.00;103007;1256;1004503;-79
2024/02/03 04:08:06;;;;;;;27.90;23.50;;;;;;;-128.00;-1.00;-1.00;103344;1253;1003816;-79
2024/02/03 04:10:32;;;;;;;11.00;8.50;;;;;;;-128.00;-1.00;-1.00;103025;1253;1004035;-79
2024/02/03 04:12:59;;;;;;;9.10;6.10;;;;;;;-128.00;-1.00;-1.00;102999;1253;1004166;-75
2024/02/03 04:15:26;;;;;;;10.60;6.60;;;;;;;-128.00;-1.00;-1.00;105605;1253;1004549;-79
2024/02/03 04:17:53;;;;;;;8.20;4.90;;;;;;;-128.00;-1.00;-1.00;105644;1256;1004020;-75
2024/02/03 04:20:19;;;;;;;10.90;5.40;;;;;;;-128.00;-1.00;-1.00;105550;1253;1004378;-75
2024/02/03 04:22:46;;;;;;;11.60;6.00;;;;;;;-128.00;-1.00;-1.00;105035;1253;1004606;-80
2024/02/03 04:25:12;;;;;;;11.80;5.90;;;;;;;-128.00;-1.00;-1.00;103113;1253;1004674;-74
2024/02/03 04:27:38;;;;;;;42.20;37.90;;;;;;;-128.00;-1.00;-1.00;103285;1253;1004923;-74
2024/02/03 04:30:06;;;;;;;12.00;10.00;;;;;;;-128.00;-1.00;-1.00;103025;1253;1003662;-79
2024/02/03 04:32:32;;;;;;;9.80;5.50;;;;;;;-128.00;-1.00;-1.00;105684;1252;1004426;-80
2024/02/03 04:34:59;;;;;;;8.50;4.60;;;;;;;-128.00;-1.00;-1.00;105307;1251;1004608;-75
2024/02/03 04:37:25;;;;;;;9.10;4.50;;;;;;;-128.00;-1.00;-1.00;103001;1253;1004039;-75
2024/02/03 04:39:52;;;;;;;14.00;4.80;;;;;;;-128.00;-1.00;-1.00;102994;1253;1005028;-75
2024/02/03 04:42:19;;;;;;;8.20;4.90;;;;;;;-128.00;-1.00;-1.00;103483;1253;1005480;-75
2024/02/03 04:44:45;;;;;;;9.70;5.20;;;;;;;-128.00;-1.00;-1.00;103304;1253;1004342;-75
2024/02/03 04:47:12;;;;;;;7.30;4.10;;;;;;;-128.00;-1.00;-1.00;103025;1253;1004652;-79
2024/02/03 04:49:38;;;;;;;7.40;4.20;;;;;;;-128.00;-1.00;-1.00;103044;1252;1003981;-80
2024/02/03 04:52:05;;;;;;;8.90;6.10;;;;;;;-128.00;-1.00;-1.00;103015;1253;1005353;-74
2024/02/03 04:54:31;;;;;;;11.50;6.10;;;;;;;-128.00;-1.00;-1.00;102983;1253;1004598;-79
2024/02/03 04:56:58;;;;;;;11.40;5.60;;;;;;;-128.00;-1.00;-1.00;102988;1253;1004549;-79
2024/02/03 04:59:24;;;;;;;10.30;4.60;;;;;;;-128.00;-1.00;-1.00;102945;1253;1004070;-79
2024/02/03 05:01:51;;;;;;;5.60;3.90;;;;;;;-128.00;-1.00;-1.00;102958;1253;1004656;-79
2024/02/03 05:04:17;;;;;;;8.10;3.60;;;;;;;-128.00;-1.00;-1.00;105718;1253;1004325;-79
2024/02/03 05:06:43;;;;;;;5.70;3.60;;;;;;;-128.00;-1.00;-1.00;105672;1257;1003287;-79
2024/02/03 05:09:11;;;;;;;10.90;3.60;;;;;;;-128.00;-1.00;-1.00;105658;1253;1003797;-79
2024/02/03 05:11:37;;;;;;;10.60;4.60;;;;;;;-128.00;-1.00;-1.00;104934;1253;1003747;-79
2024/02/03 05:14:03;;;;;;;7.50;3.60;;;;;;;-128.00;-1.00;-1.00;103062;1253;1004219;-79
2024/02/03 05:16:30;;;;;;;7.60;3.70;;;;;;;-128.00;-1.00;-1.00;102995;1252;1005066;-75
2024/02/03 05:18:57;;;;;;;9.10;6.10;;;;;;;-128.00;-1.00;-1.00;103022;1253;1004924;-79
2024/02/03 05:21:23;;;;;;;12.00;10.20;;;;;;;-128.00;-1.00;-1.00;103081;1253;1004280;-79
2024/02/03 05:23:51;;;;;;;10.30;8.50;;;;;;;-128.00;-1.00;-1.00;102983;1253;1004665;-75
2024/02/03 05:26:17;;;;;;;14.90;7.50;;;;;;;-128.00;-1.00;-1.00;103047;1255;1006012;-80
2024/02/03 05:28:43;;;;;;;5.90;4.20;;;;;;;-128.00;-1.00;-1.00;103071;1252;1004560;-79
2024/02/03 05:31:10;;;;;;;4.70;3.40;;;;;;;-128.00;-1.00;-1.00;103025;1253;1004876;-79
2024/02/03 05:33:36;;;;;;;5.90;3.30;;;;;;;-128.00;-1.00;-1.00;105069;1253;1003904;-80
2024/02/03 05:36:03;;;;;;;4.50;2.90;;;;;;;-128.00;-1.00;-1.00;105707;1253;1004092;-80
2024/02/03 05:38:29;;;;;;;7.20;3.40;;;;;;;-128.00;-1.00;-1.00;105170;1252;1004026;-75
2024/02/03 05:40:56;;;;;;;6.30;3.40;;;;;;;-128.00;-1.00;-1.00;105723;1253;1005022;-80
2024/02/03 05:43:22;;;;;;;6.60;3.30;;;;;;;-128.00;-1.00;-1.00;105278;1253;1005011;-79
2024/02/03 05:45:48;;;;;;;5.70;3.20;;;;;;;-128.00;-1.00;-1.00;103093;1252;1005305;-75
2024/02/03 05:48:15;;;;;;;6.60;4.00;;;;;;;-128.00;-1.00;-1.00;104565;1252;1003622;-79
2024/02/03 05:50:41;;;;;;;10.40;3.10;;;;;;;-128.00;-1.00;-1.00;103046;1255;1004448;-80
2024/02/03 05:53:08;;;;;;;7.80;5.50;;;;;;;-128.00;-1.00;-1.00;103034;1256;1004528;-79
2024/02/03 05:55:34;;;;;;;9.00;5.60;;;;;;;-128.00;-1.00;-1.00;103000;1253;1004236;-75
2024/02/03 05:58:01;;;;;;;6.50;4.70;;;;;;;-128.00;-1.00;-1.00;103011;1253;1045448;-80
2024/02/03 06:00:27;;;;;;;7.60;5.30;;;;;;;-128.00;-1.00;-1.00;102965;1255;1005365;-79
2024/02/03 06:02:56;;;;;;;53.00;28.90;;;;;;;-128.00;-1.00;-1.00;103075;1253;1004523;-75
2024/02/03 06:05:22;;;;;;;14.50;8.40;;;;;;;-128.00;-1.00;-1.00;105721;1253;1058378;-79
2024/02/03 06:07:49;;;;;;;8.30;4.50;;;;;;;-128.00;-1.00;-1.00;103804;1255;1003734;-75
2024/02/03 06:10:15;;;;;;;10.70;6.50;;;;;;;-128.00;-1.00;-1.00;103027;1253;1005264;-79
2024/02/03 06:12:42;;;;;;;17.20;8.00;;;;;;;-128.00;-1.00;-1.00;104067;1253;1005145;-75
2024/02/03 06:15:09;;;;;;;10.90;5.90;;;;;;;-128.00;-1.00;-1.00;105673;1253;1004563;-79
2024/02/03 06:17:35;;;;;;;23.40;13.00;;;;;;;-128.00;-1.00;-1.00;104593;1253;1006132;-75
2024/02/03 06:20:02;;;;;;;10.30;6.60;;;;;;;-128.00;-1.00;-1.00;103084;1253;1004832;-75
2024/02/03 06:22:28;;;;;;;10.10;5.80;;;;;;;-128.00;-1.00;-1.00;103900;1253;1004630;-79
2024/02/03 06:24:55;;;;;;;14.40;7.60;;;;;;;-128.00;-1.00;-1.00;103129;1253;1004005;-75
2024/02/03 06:27:21;;;;;;;27.20;14.10;;;;;;;-128.00;-1.00;-1.00;103024;1253;1004535;-75
2024/02/03 06:29:47;;;;;;;26.60;14.40;;;;;;;-128.00;-1.00;-1.00;102998;1254;1004508;-79
2024/02/03 06:32:14;;;;;;;47.90;23.20;;;;;;;-128.00;-1.00;-1.00;104547;1253;1003919;-75
2024/02/03 06:34:40;;;;;;;16.90;10.90;;;;;;;-128.00;-1.00;-1.00;105714;1253;1004063;-75
2024/02/03 06:37:07;;;;;;;13.50;8.40;;;;;;;-128.00;-1.00;-1.00;105743;1253;1003822;-75
2024/02/03 06:39:33;;;;;;;12.00;7.60;;;;;;;-128.00;-1.00;-1.00;105709;1253;1004165;-75
2024/02/03 06:42:00;;;;;;;7.70;5.00;;;;;;;-128.00;-1.00;-1.00;105703;1253;1004914;-79
2024/02/03 06:44:26;;;;;;;14.20;7.70;;;;;;;-128.00;-1.00;-1.00;103418;1253;1004337;-79
2024/02/03 06:46:53;;;;;;;9.70;6.80;;;;;;;-128.00;-1.00;-1.00;103044;1252;1003895;-75
2024/02/03 06:49:19;;;;;;;14.20;10.30;;;;;;;-128.00;-1.00;-1.00;102980;1253;1004903;-75
2024/02/03 06:51:46;;;;;;;14.10;9.30;;;;;;;-128.00;-1.00;-1.00;103466;1253;1004304;-76
2024/02/03 06:54:13;;;;;;;4.20;2.90;;;;;;;-128.00;-1.00;-1.00;102962;1254;1004052;-80
2024/02/03 06:56:39;;;;;;;11.10;6.90;;;;;;;-128.00;-1.00;-1.00;103075;1253;1004473;-79
2024/02/03 06:59:06;;;;;;;4.40;3.00;;;;;;;-128.00;-1.00;-1.00;105722;1252;1004590;-75
2024/02/03 07:01:32;;;;;;;5.10;3.60;;;;;;;-128.00;-1.00;-1.00;105734;1253;1004450;-75
2024/02/03 07:03:59;;;;;;;25.10;15.50;;;;;;;-128.00;-1.00;-1.00;105751;1256;1004848;-80
2024/02/03 07:06:25;;;;;;;71.30;35.70;;;;;;;-128.00;-1.00;-1.00;105733;1253;1005015;-79
2024/02/03 07:08:52;;;;;;;23.90;12.30;;;;;;;-128.00;-1.00;-1.00;105651;1252;1003957;-79
2024/02/03 07:11:18;;;;;;;36.80;18.60;;;;;;;-128.00;-1.00;-1.00;103783;1256;1003825;-75
2024/02/03 07:13:45;;;;;;;26.10;12.40;;;;;;;-128.00;-1.00;-1.00;103892;1253;1003886;-79
2024/02/03 07:16:11;;;;;;;16.90;9.50;;;;;;;-128.00;-1.00;-1.00;105726;1253;1004117;-80
2024/02/03 07:18:38;;;;;;;20.50;11.50;;;;;;;-128.00;-1.00;-1.00;103339;1253;1004621;-79
2024/02/03 07:21:04;;;;;;;12.40;9.20;;;;;;;-128.00;-1.00;-1.00;103053;1253;1005036;-79
2024/02/03 07:23:31;;;;;;;12.10;6.50;;;;;;;-128.00;-1.00;-1.00;103398;1256;1003802;-75
2024/02/03 07:25:58;;;;;;;27.00;13.40;;;;;;;-128.00;-1.00;-1.00;103268;1253;1004688;-75
2024/02/03 07:28:24;;;;;;;15.20;7.00;;;;;;;-128.00;-1.00;-1.00;103275;1254;1005663;-80
2024/02/03 07:30:51;;;;;;;10.60;5.20;;;;;;;-128.00;-1.00;-1.00;103349;1252;1004230;-80
2024/02/03 07:33:17;;;;;;;14.20;5.50;;;;;;;-128.00;-1.00;-1.00;103343;1254;1004444;-80
2024/02/03 07:35:43;;;;;;;8.70;4.60;;;;;;;-128.00;-1.00;-1.00;103338;1253;1006545;-80
2024/02/03 07:38:10;;;;;;;7.10;3.40;;;;;;;-128.00;-1.00;-1.00;103291;1253;1005028;-79
2024/02/03 07:40:36;;;;;;;9.60;5.60;;;;;;;-128.00;-1.00;-1.00;103353;1253;1004929;-75
2024/02/03 07:43:03;;;;;;;11.90;6.70;;;;;;;-128.00;-1.00;-1.00;104762;1253;1004809;-75
2024/02/03 07:45:29;;;;;;;8.50;4.70;;;;;;;-128.00;-1.00;-1.00;105673;1253;1003924;-79
2024/02/03 07:47:56;;;;;;;8.90;5.40;;;;;;;-128.00;-1.00;-1.00;105669;1253;1003185;-75
2024/02/03 07:50:22;;;;;;;17.60;11.30;;;;;;;-128.00;-1.00;-1.00;105703;1253;1004244;-79
2024/02/03 07:52:49;;;;;;;8.90;7.10;;;;;;;-128.00;-1.00;-1.00;105668;1256;1004215;-80
2024/02/03 07:55:15;;;;;;;12.10;8.10;;;;;;;-128.00;-1.00;-1.00;105646;1252;1004939;-74
2024/02/03 07:57:42;;;;;;;8.70;5.50;;;;;;;-128.00;-1.00;-1.00;105657;1253;1004519;-80
2024/02/03 08:00:08;;;;;;;5.70;4.00;;;;;;;-128.00;-1.00;-1.00;105669;1253;1004187;-80
2024/02/03 08:02:35;;;;;;;10.40;5.40;;;;;;;-128.00;-1.00;-1.00;105680;1253;1004142;-79
2024/02/03 08:05:01;;;;;;;5.60;3.80;;;;;;;-128.00;-1.00;-1.00;105681;1252;1004441;-75
2024/02/03 08:07:28;;;;;;;7.10;5.10;;;;;;;-128.00;-1.00;-1.00;105583;1253;1004340;-80
2024/02/03 08:09:54;;;;;;;5.70;3.80;;;;;;;-128.00;-1.00;-1.00;105543;1253;1003741;-75
2024/02/03 08:12:20;;;;;;;8.40;5.50;;;;;;;-128.00;-1.00;-1.00;103407;1256;1005259;-80
2024/02/03 08:14:47;;;;;;;6.70;3.60;;;;;;;-128.00;-1.00;-1.00;103306;1252;1004627;-76
2024/02/03 08:17:13;;;;;;;6.40;3.90;;;;;;;-128.00;-1.00;-1.00;103260;1255;1005256;-80
2024/02/03 08:19:40;;;;;;;10.10;4.50;;;;;;;-128.00;-1.00;-1.00;103348;1254;1004513;-75
2024/02/03 08:22:06;;;;;;;4.40;3.10;;;;;;;-128.00;-1.00;-1.00;103270;1256;1044493;-75
2024/02/03 08:24:32;;;;;;;5.10;2.90;;;;;;;-128.00;-1.00;-1.00;103299;1254;1004685;-80
2024/02/03 08:26:59;;;;;;;6.30;3.70;;;;;;;-128.00;-1.00;-1.00;103273;1252;1004096;-80
2024/02/03 08:29:25;;;;;;;4.70;3.30;;;;;;;-128.00;-1.00;-1.00;103295;1253;1004718;-80
2024/02/03 08:31:52;;;;;;;14.50;4.40;;;;;;;-128.00;-1.00;-1.00;103310;1253;1004802;-75
2024/02/03 08:34:19;;;;;;;12.60;6.60;;;;;;;-128.00;-1.00;-1.00;103171;1253;1003966;-75
2024/02/03 08:36:45;;;;;;;6.50;3.70;;;;;;;-128.00;-1.00;-1.00;105622;1257;1004450;-81
2024/02/03 08:39:11;;;;;;;5.70;4.30;;;;;;;-128.00;-1.00;-1.00;103275;1253;1004546;-80
2024/02/03 08:41:38;;;;;;;5.90;3.70;;;;;;;-128.00;-1.00;-1.00;103078;1253;1004780;-79
2024/02/03 08:44:04;;;;;;;8.10;5.00;;;;;;;-128.00;-1.00;-1.00;103091;1255;1005107;-79
2024/02/03 08:46:31;;;;;;;14.30;6.90;;;;;;;-128.00;-1.00;-1.00;103084;1254;1003759;-75
2024/02/03 08:48:57;;;;;;;16.60;5.10;;;;;;;-128.00;-1.00;-1.00;103140;1256;1004476;-75
2024/02/03 08:51:23;;;;;;;9.50;4.80;;;;;;;-128.00;-1.00;-1.00;103685;1252;1003960;-75
2024/02/03 08:53:50;;;;;;;6.10;3.70;;;;;;;-128.00;-1.00;-1.00;103663;1256;1004074;-75
2024/02/03 08:56:19;;;;;;;5.40;3.20;;;;;;;-128.00;-1.00;-1.00;103673;1253;1003813;-79
2024/02/03 08:58:45;;;;;;;10.20;5.40;;;;;;;-128.00;-1.00;-1.00;105682;1253;1045648;-79
2024/02/03 09:01:12;;;;;;;18.20;9.50;;;;;;;-128.00;-1.00;-1.00;105669;1253;1003430;-79
2024/02/03 09:03:38;;;;;;;8.00;4.10;;;;;;;-128.00;-1.00;-1.00;105655;1253;1004941;-79
2024/02/03 09:06:05;;;;;;;5.30;3.00;;;;;;;-128.00;-1.00;-1.00;105546;1256;1003497;-75
2024/02/03 09:08:32;;;;;;;6.40;3.40;;;;;;;-128.00;-1.00;-1.00;105689;1254;1004601;-75
2024/02/03 09:10:58;;;;;;;5.30;3.70;;;;;;;-128.00;-1.00;-1.00;105537;1253;1003838;-75
2024/02/03 09:13:25;;;;;;;5.70;3.90;;;;;;;-128.00;-1.00;-1.00;105641;1256;1004273;-80
2024/02/03 09:15:51;;;;;;;7.10;3.80;;;;;;;-128.00;-1.00;-1.00;105682;1253;1003751;-80
2024/02/03 09:18:18;;;;;;;4.70;3.00;;;;;;;-128.00;-1.00;-1.00;103349;1257;1003972;-75
2024/02/03 09:20:44;;;;;;;7.00;4.50;;;;;;;-128.00;-1.00;-1.00;103191;1256;1005091;-79
2024/02/03 09:23:11;;;;;;;6.40;3.70;;;;;;;-128.00;-1.00;-1.00;104951;1257;1004755;-75
2024/02/03 09:25:39;;;;;;;7.50;4.90;;;;;;;-128.00;-1.00;-1.00;105709;1253;1004421;-80
2024/02/03 09:28:06;;;;;;;7.40;4.40;;;;;;;-128.00;-1.00;-1.00;105496;1254;1004517;-80
2024/02/03 09:30:33;;;;;;;6.10;4.00;;;;;;;-128.00;-1.00;-1.00;103230;1254;1005272;-75
2024/02/03 09:33:00;;;;;;;7.30;4.00;;;;;;;-128.00;-1.00;-1.00;103385;1255;1005330;-75
2024/02/03 09:35:27;;;;;;;8.80;5.30;;;;;;;-128.00;-1.00;-1.00;103132;1253;1007027;-75
2024/02/03 09:37:53;;;;;;;10.80;4.60;;;;;;;-128.00;-1.00;-1.00;103248;1254;1004957;-75
2024/02/03 09:40:23;;;;;;;9.50;5.00;;;;;;;-128.00;-1.00;-1.00;103193;1255;1003832;-76
2024/02/03 09:42:49;;;;;;;9.00;5.70;;;;;;;-128.00;-1.00;-1.00;104695;1253;1059907;-75
2024/02/03 09:45:16;;;;;;;9.00;5.30;;;;;;;-128.00;-1.00;-1.00;104561;1254;1004179;-79
2024/02/03 09:47:42;;;;;;;8.10;5.40;;;;;;;-128.00;-1.00;-1.00;103167;1254;1004711;-79
2024/02/03 09:50:09;;;;;;;8.10;4.50;;;;;;;-128.00;-1.00;-1.00;103205;1254;1004321;-79
2024/02/03 09:52:37;;;;;;;13.80;7.50;;;;;;;-128.00;-1.00;-1.00;104474;1253;1005700;-81
2024/02/03 09:55:04;;;;;;;13.70;7.50;;;;;;;-128.00;-1.00;-1.00;105685;1254;1003994;-79
2024/02/03 09:57:30;;;;;;;41.20;16.50;;;;;;;-128.00;-1.00;-1.00;105635;1253;1004372;-79
2024/02/03 09:59:58;;;;;;;100.20;45.50;;;;;;;-128.00;-1.00;-1.00;105574;1252;1004679;-76
2024/02/03 10:02:24;;;;;;;91.90;37.00;;;;;;;-128.00;-1.00;-1.00;105665;1252;1004345;-75
2024/02/03 10:04:52;;;;;;;54.30;24.10;;;;;;;-128.00;-1.00;-1.00;105631;1254;1003852;-75
2024/02/03 10:07:19;;;;;;;38.80;17.50;;;;;;;-128.00;-1.00;-1.00;105660;1254;1004979;-75
2024/02/03 10:09:46;;;;;;;41.70;19.90;;;;;;;-128.00;-1.00;-1.00;105644;1254;1004746;-75
2024/02/03 10:12:17;;;;;;;14.50;8.90;;;;;;;-128.00;-1.00;-1.00;105610;1254;1005066;-75
2024/02/03 10:14:44;;;;;;;13.20;6.50;;;;;;;-128.00;-1.00;-1.00;105667;1253;1048089;-75
2024/02/03 10:17:10;;;;;;;22.70;12.70;;;;;;;-128.00;-1.00;-1.00;104579;1254;1004760;-75
2024/02/03 10:19:37;;;;;;;33.20;16.60;;;;;;;-128.00;-1.00;-1.00;103193;1256;1004739;-75
2024/02/03 10:22:03;;;;;;;43.50;20.90;;;;;;;-128.00;-1.00;-1.00;103912;1253;1004365;-75
2024/02/03 10:24:29;;;;;;;8.80;4.90;;;;;;;-128.00;-1.00;-1.00;105634;1254;1004176;-80
2024/02/03 10:27:03;;;;;;;21.60;10.20;;;;;;;-128.00;-1.00;-1.00;105693;1254;1004158;-75
2024/02/03 10:29:29;;;;;;;35.90;17.50;;;;;;;-128.00;-1.00;-1.00;105680;1254;1061909;-75
2024/02/03 10:31:56;;;;;;;36.00;15.70;;;;;;;-128.00;-1.00;-1.00;105651;1253;1005269;-79
2024/02/03 10:34:22;;;;;;;51.40;24.70;;;;;;;-128.00;-1.00;-1.00;105610;1253;1004376;-80
2024/02/03 10:36:49;;;;;;;14.20;7.70;;;;;;;-128.00;-1.00;-1.00;105667;1253;1005098;-79
2024/02/03 10:39:15;;;;;;;44.90;21.30;;;;;;;-128.00;-1.00;-1.00;104491;1254;1003594;-75
2024/02/03 10:41:43;;;;;;;49.10;25.10;;;;;;;-128.00;-1.00;-1.00;103253;1256;1004522;-81
2024/02/03 10:44:10;;;;;;;48.00;25.20;;;;;;;-128.00;-1.00;-1.00;103228;1254;1004191;-80
2024/02/03 10:46:42;;;;;;;30.40;16.10;;;;;;;-128.00;-1.00;-1.00;103165;1254;1004742;-79
2024/02/03 10:49:19;;;;;;;41.30;19.90;;;;;;;-128.00;-1.00;-1.00;103189;1253;1047220;-79
2024/02/03 10:51:47;;;;;;;17.40;10.40;;;;;;;-128.00;-1.00;-1.00;103242;1254;1046808;-76
2024/02/03 10:54:17;;;;;;;28.80;14.80;;;;;;;-128.00;-1.00;-1.00;103450;1253;1004254;-79
2024/02/03 10:56:45;;;;;;;42.10;19.60;;;;;;;-128.00;-1.00;-1.00;105651;1253;1057883;-75
2024/02/03 10:59:20;;;;;;;51.80;26.70;;;;;;;-128.00;-1.00;-1.00;105588;1253;1058512;-80
2024/02/03 11:01:47;;;;;;;44.60;21.20;;;;;;;-128.00;-1.00;-1.00;105598;1254;1046505;-79
2024/02/03 11:04:14;;;;;;;81.90;33.00;;;;;;;-128.00;-1.00;-1.00;105645;1254;1004298;-79
2024/02/03 11:06:40;;;;;;;48.90;25.70;;;;;;;-128.00;-1.00;-1.00;105634;1253;1004106;-80
2024/02/03 11:09:13;;;;;;;132.60;55.00;;;;;;;-128.00;-1.00;-1.00;105652;1253;1004254;-76